createdAt,value
2019-03-27T00:02:19.472Z,90.69
2019-03-27T00:04:52.144Z,90.66
2019-03-27T00:07:24.728Z,90.67
2019-03-27T00:09:57.408Z,90.59
2019-03-27T00:12:29.977Z,90.71
2019-03-27T00:15:12.831Z,91.00
2019-03-27T00:17:36.780Z,91.27
2019-03-27T00:20:12.622Z,91.45
2019-03-27T00:22:46.846Z,91.50
2019-03-27T00:25:19.430Z,91.45
2019-03-27T00:27:51.730Z,91.42
2019-03-27T00:30:24.269Z,91.55
2019-03-27T00:32:56.468Z,91.64
2019-03-27T00:35:29.013Z,91.77
2019-03-27T00:38:02.409Z,91.75
2019-03-27T00:40:34.985Z,91.74
2019-03-27T00:43:07.973Z,91.73
2019-03-27T00:45:40.594Z,91.73
2019-03-27T00:48:13.628Z,91.82
2019-03-27T00:50:46.212Z,91.82
2019-03-27T00:53:18.781Z,91.85
2019-03-27T00:55:51.359Z,92.01
2019-03-27T00:58:23.554Z,92.26
2019-03-27T01:01:06.243Z,92.43
2019-03-27T01:03:38.932Z,92.41
2019-03-27T01:06:13.238Z,92.40
2019-03-27T01:08:45.815Z,92.40
2019-03-27T01:11:18.390Z,92.48
2019-03-27T01:13:50.980Z,92.45
2019-03-27T01:16:23.551Z,92.48
2019-03-27T01:18:56.133Z,92.48
2019-03-27T01:21:28.698Z,92.56
2019-03-27T01:24:01.284Z,92.46
2019-03-27T01:26:33.858Z,92.37
2019-03-27T01:29:06.425Z,92.41
2019-03-27T01:31:40.144Z,92.40
2019-03-27T01:34:12.714Z,92.46
2019-03-27T01:36:45.372Z,92.68
2019-03-27T01:39:17.957Z,92.85
2019-03-27T01:41:50.548Z,92.89
2019-03-27T01:44:23.427Z,93.13
2019-03-27T01:46:56.005Z,92.96
2019-03-27T01:49:28.568Z,93.03
2019-03-27T01:52:00.699Z,92.98
2019-03-27T01:54:32.903Z,92.93
2019-03-27T01:57:05.392Z,93.21
2019-03-27T01:59:37.975Z,93.16
2019-03-27T02:02:10.542Z,92.79
2019-03-27T02:04:43.133Z,93.23
2019-03-27T02:07:15.806Z,93.32
2019-03-27T02:09:48.380Z,93.31
2019-03-27T02:12:20.942Z,93.32
2019-03-27T02:14:53.535Z,93.39
2019-03-27T02:17:26.114Z,93.41
2019-03-27T02:19:58.311Z,93.50
2019-03-27T02:22:30.847Z,93.45
2019-03-27T02:25:03.050Z,93.25
2019-03-27T02:27:35.604Z,93.25
2019-03-27T02:30:10.270Z,93.21
2019-03-27T02:32:42.421Z,93.37
2019-03-27T02:35:15.069Z,93.51
2019-03-27T02:37:47.651Z,93.48
2019-03-27T02:40:19.858Z,93.66
2019-03-27T02:42:52.439Z,93.53
2019-03-27T02:45:25.067Z,93.42
2019-03-27T02:47:57.651Z,93.22
2019-03-27T02:50:30.535Z,93.07
2019-03-27T02:53:04.638Z,93.04
2019-03-27T02:55:37.215Z,93.27
2019-03-27T02:58:09.857Z,93.41
2019-03-27T03:00:42.467Z,93.49
2019-03-27T03:03:15.045Z,93.56
2019-03-27T03:06:00.242Z,93.58
2019-03-27T03:08:36.805Z,93.46
2019-03-27T03:11:09.013Z,93.33
2019-03-27T03:13:41.543Z,93.22
2019-03-27T03:16:15.336Z,93.45
2019-03-27T03:18:47.925Z,93.50
2019-03-27T03:21:20.567Z,93.60
2019-03-27T03:23:52.688Z,93.87
2019-03-27T03:26:25.343Z,93.66
2019-03-27T03:28:57.914Z,93.39
2019-03-27T03:31:30.634Z,93.03
2019-03-27T03:34:03.360Z,92.91
2019-03-27T03:36:35.959Z,92.87
2019-03-27T03:39:08.210Z,93.15
2019-03-27T03:41:40.802Z,93.50
2019-03-27T03:44:13.385Z,93.69
2019-03-27T03:46:58.945Z,93.82
2019-03-27T03:49:20.170Z,93.97
2019-03-27T03:51:55.200Z,94.08
2019-03-27T03:54:27.836Z,94.28
2019-03-27T03:57:01.276Z,94.22
2019-03-27T03:59:34.057Z,94.26
2019-03-27T04:02:06.844Z,94.23
2019-03-27T04:04:39.416Z,94.16
2019-03-27T04:07:11.998Z,94.16
2019-03-27T04:09:44.568Z,94.15
2019-03-27T04:12:17.157Z,94.30
2019-03-27T04:14:49.761Z,94.30
2019-03-27T04:17:22.311Z,94.35
2019-03-27T04:19:54.874Z,94.33
2019-03-27T04:22:27.564Z,94.25
2019-03-27T04:25:00.505Z,94.29
2019-03-27T04:27:33.221Z,94.28
2019-03-27T04:30:07.843Z,94.27
2019-03-27T04:32:40.428Z,94.22
2019-03-27T04:35:13.517Z,94.08
2019-03-27T04:37:46.085Z,94.08
2019-03-27T04:40:18.673Z,93.74
2019-03-27T04:42:51.351Z,93.21
2019-03-27T04:45:23.922Z,92.77
2019-03-27T04:47:57.007Z,92.05
2019-03-27T04:50:29.585Z,92.20
2019-03-27T04:53:03.703Z,92.20
2019-03-27T04:55:36.285Z,92.64
2019-03-27T04:58:08.850Z,93.16
2019-03-27T05:00:58.129Z,93.41
2019-03-27T05:04:04.487Z,93.64
2019-03-27T05:06:43.618Z,93.86
2019-03-27T05:09:16.217Z,93.96
2019-03-27T05:11:48.773Z,94.08
2019-03-27T05:14:21.352Z,94.08
2019-03-27T05:16:53.933Z,94.09
2019-03-27T05:19:26.512Z,93.93
2019-03-27T05:22:00.524Z,93.83
2019-03-27T05:24:33.499Z,93.76
2019-03-27T05:27:06.067Z,93.73
2019-03-27T05:29:38.661Z,93.65
2019-03-27T05:32:11.235Z,93.58
2019-03-27T05:34:44.939Z,93.53
2019-03-27T05:37:17.518Z,93.51
2019-03-27T05:39:50.090Z,93.40
2019-03-27T05:42:22.661Z,93.25
2019-03-27T05:44:55.249Z,93.06
2019-03-27T05:47:27.823Z,92.78
2019-03-27T05:50:00.801Z,92.49
2019-03-27T05:52:33.380Z,92.21
2019-03-27T05:55:07.295Z,91.84
2019-03-27T05:57:39.863Z,91.14
2019-03-27T06:00:14.181Z,91.14
2019-03-27T06:02:46.320Z,90.67
2019-03-27T06:05:18.929Z,90.13
2019-03-27T06:07:52.427Z,89.62
2019-03-27T06:10:25.008Z,89.23
2019-03-27T06:12:57.154Z,88.91
2019-03-27T06:15:29.747Z,88.64
2019-03-27T06:18:12.533Z,87.84
2019-03-27T06:20:37.251Z,87.24
2019-03-27T06:23:09.835Z,86.56
2019-03-27T06:25:42.407Z,86.43
2019-03-27T06:28:14.998Z,85.75
2019-03-27T06:30:47.555Z,84.88
2019-03-27T06:33:20.034Z,83.87
2019-03-27T06:35:52.608Z,83.87
2019-03-27T06:38:25.194Z,84.35
2019-03-27T06:40:58.247Z,83.98
2019-03-27T06:43:30.959Z,83.56
2019-03-27T06:46:03.531Z,82.60
2019-03-27T06:48:36.127Z,81.70
2019-03-27T06:51:08.685Z,81.61
2019-03-27T06:53:41.155Z,81.00
2019-03-27T06:56:13.835Z,80.16
2019-03-27T06:58:54.335Z,79.53
2019-03-27T07:01:20.627Z,79.93
2019-03-27T07:03:53.215Z,78.83
2019-03-27T07:06:27.008Z,78.30
2019-03-27T07:08:59.593Z,78.59
2019-03-27T07:11:32.167Z,76.79
2019-03-27T07:14:04.640Z,76.08
2019-03-27T07:16:38.156Z,75.85
2019-03-27T07:19:10.752Z,74.50
2019-03-27T07:21:44.316Z,75.34
2019-03-27T07:24:16.894Z,73.93
2019-03-27T07:26:49.433Z,73.77
2019-03-27T07:29:21.945Z,72.79
2019-03-27T07:31:54.531Z,73.12
2019-03-27T07:34:27.206Z,72.79
2019-03-27T07:36:59.779Z,71.20
2019-03-27T07:39:32.532Z,71.35
2019-03-27T07:42:05.143Z,70.12
2019-03-27T07:44:37.724Z,69.52
2019-03-27T07:47:09.938Z,68.44
2019-03-27T07:49:42.463Z,68.79
2019-03-27T07:52:15.544Z,68.06
2019-03-27T07:54:48.429Z,66.79
2019-03-27T07:57:21.005Z,65.92
2019-03-27T07:59:53.480Z,65.42
2019-03-27T08:02:26.056Z,64.49
2019-03-27T08:04:58.177Z,65.03
2019-03-27T08:07:30.366Z,65.36
2019-03-27T08:10:02.884Z,62.71
2019-03-27T08:12:35.859Z,62.04
2019-03-27T08:15:10.171Z,61.02
2019-03-27T08:17:42.853Z,60.14
2019-03-27T08:20:15.846Z,59.82
2019-03-27T08:22:48.406Z,58.09
2019-03-27T08:25:20.999Z,57.83
2019-03-27T08:27:53.569Z,57.72
2019-03-27T08:30:26.448Z,56.64
2019-03-27T08:32:59.030Z,57.18
2019-03-27T08:35:31.493Z,54.10
2019-03-27T08:38:03.683Z,54.49
2019-03-27T08:40:36.249Z,55.83
2019-03-27T08:43:20.578Z,55.59
2019-03-27T08:45:46.107Z,54.38
2019-03-27T08:48:18.687Z,54.70
2019-03-27T08:50:52.292Z,54.54
2019-03-27T08:53:25.493Z,52.99
2019-03-27T08:55:58.053Z,53.63
2019-03-27T08:58:30.247Z,53.08
2019-03-27T09:01:02.801Z,51.55
2019-03-27T09:03:35.373Z,50.89
2019-03-27T09:06:07.505Z,49.16
2019-03-27T09:08:40.315Z,48.59
2019-03-27T09:11:14.024Z,49.29
2019-03-27T09:13:46.604Z,48.58
2019-03-27T09:16:19.076Z,47.05
2019-03-27T09:18:51.658Z,48.08
2019-03-27T09:21:24.232Z,47.36
2019-03-27T09:23:56.855Z,47.46
2019-03-27T09:26:28.965Z,45.87
2019-03-27T09:29:01.561Z,46.14
2019-03-27T09:31:44.022Z,46.48
2019-03-27T09:34:08.653Z,46.42
2019-03-27T09:36:40.774Z,44.77
2019-03-27T09:39:13.470Z,44.78
2019-03-27T09:41:45.973Z,43.97
2019-03-27T09:44:18.545Z,44.62
2019-03-27T09:46:51.020Z,43.12
2019-03-27T09:49:23.598Z,44.35
2019-03-27T09:51:56.186Z,45.29
2019-03-27T09:54:29.157Z,42.94
2019-03-27T09:57:01.645Z,42.41
2019-03-27T09:59:34.215Z,43.61
2019-03-27T10:02:06.788Z,41.60
2019-03-27T10:04:40.184Z,41.55
2019-03-27T10:07:12.882Z,42.02
2019-03-27T10:09:45.545Z,40.99
2019-03-27T10:12:18.129Z,40.92
2019-03-27T10:14:50.698Z,41.28
2019-03-27T10:17:23.922Z,42.13
2019-03-27T10:20:03.256Z,41.65
2019-03-27T10:22:30.787Z,43.06
2019-03-27T10:25:03.364Z,42.59
2019-03-27T10:27:35.945Z,42.63
2019-03-27T10:30:09.699Z,42.32
2019-03-27T10:32:42.222Z,41.22
2019-03-27T10:35:15.206Z,42.92
2019-03-27T10:37:47.796Z,42.64
2019-03-27T10:40:20.354Z,41.38
2019-03-27T10:42:52.992Z,40.55
2019-03-27T10:45:25.712Z,40.14
2019-03-27T10:47:57.901Z,40.35
2019-03-27T10:50:30.662Z,40.49
2019-03-27T10:53:03.249Z,38.66
2019-03-27T10:55:37.554Z,39.68
2019-03-27T10:58:10.154Z,42.99
2019-03-27T11:00:42.842Z,44.14
2019-03-27T11:03:15.493Z,44.83
2019-03-27T11:05:48.078Z,44.73
2019-03-27T11:08:20.645Z,45.38
2019-03-27T11:10:52.836Z,44.83
2019-03-27T11:13:25.383Z,45.87
2019-03-27T11:15:58.270Z,45.84
2019-03-27T11:18:30.848Z,45.84
2019-03-27T11:21:03.493Z,44.83
2019-03-27T11:23:36.001Z,45.45
2019-03-27T11:26:08.591Z,45.24
2019-03-27T11:28:41.165Z,45.91
2019-03-27T11:31:13.739Z,43.71
2019-03-27T11:33:46.306Z,45.11
2019-03-27T11:36:19.915Z,45.99
2019-03-27T11:38:52.498Z,46.68
2019-03-27T11:41:25.076Z,46.54
2019-03-27T11:43:57.650Z,43.56
2019-03-27T11:46:32.280Z,45.61
2019-03-27T11:49:04.328Z,46.43
2019-03-27T11:51:36.912Z,48.01
2019-03-27T11:54:09.379Z,48.37
2019-03-27T11:56:42.678Z,48.39
2019-03-27T11:59:15.258Z,48.20
2019-03-27T12:01:47.837Z,49.70
2019-03-27T12:04:20.403Z,50.62
2019-03-27T12:06:52.985Z,51.91
2019-03-27T12:09:25.565Z,52.61
2019-03-27T12:11:58.243Z,52.63
2019-03-27T12:14:30.813Z,52.90
2019-03-27T12:17:03.389Z,53.25
2019-03-27T12:19:37.866Z,53.50
2019-03-27T12:22:09.884Z,53.29
2019-03-27T12:24:42.565Z,54.69
2019-03-27T12:27:15.186Z,55.89
2019-03-27T12:29:47.702Z,56.84
2019-03-27T12:32:20.135Z,57.09
2019-03-27T12:34:52.767Z,57.56
2019-03-27T12:37:25.343Z,57.43
2019-03-27T12:39:57.923Z,57.29
2019-03-27T12:42:30.122Z,57.86
2019-03-27T12:45:04.807Z,57.86
2019-03-27T12:47:37.393Z,58.72
2019-03-27T12:50:10.982Z,59.32
2019-03-27T12:52:43.569Z,59.91
2019-03-27T12:55:16.656Z,60.30
2019-03-27T12:57:50.039Z,61.21
2019-03-27T13:00:23.242Z,61.68
2019-03-27T13:02:55.807Z,62.71
2019-03-27T13:05:28.388Z,62.92
2019-03-27T13:08:00.974Z,62.83
2019-03-27T13:10:33.551Z,62.87
2019-03-27T13:13:09.087Z,62.82
2019-03-27T13:15:41.664Z,63.04
2019-03-27T13:18:14.247Z,62.78
2019-03-27T13:20:46.825Z,63.03
2019-03-27T13:23:19.403Z,62.86
2019-03-27T13:25:51.973Z,63.28
2019-03-27T13:28:24.555Z,63.68
2019-03-27T13:30:57.132Z,64.35
2019-03-27T13:33:29.706Z,64.84
2019-03-27T13:36:02.287Z,65.33
2019-03-27T13:38:34.951Z,64.71
2019-03-27T13:41:07.426Z,64.17
2019-03-27T13:43:40.014Z,64.31
2019-03-27T13:46:12.490Z,63.77
2019-03-27T13:48:45.552Z,63.70
2019-03-27T13:51:18.257Z,63.35
2019-03-27T13:53:50.832Z,63.16
2019-03-27T13:56:23.304Z,63.42
2019-03-27T13:58:56.600Z,63.04
2019-03-27T14:01:29.074Z,63.00
2019-03-27T14:04:01.663Z,63.15
2019-03-27T14:06:34.221Z,63.25
2019-03-27T14:09:09.464Z,63.24
2019-03-27T14:11:42.197Z,63.74
2019-03-27T14:14:14.834Z,63.51
2019-03-27T14:16:47.403Z,62.60
2019-03-27T14:19:19.976Z,61.86
2019-03-27T14:21:54.734Z,61.57
2019-03-27T14:24:26.671Z,60.49
2019-03-27T14:27:00.877Z,60.53
2019-03-27T14:29:33.463Z,60.85
2019-03-27T14:32:06.043Z,61.20
2019-03-27T14:34:38.607Z,60.99
2019-03-27T14:37:11.190Z,62.12
2019-03-27T14:39:43.774Z,63.06
2019-03-27T14:42:16.353Z,63.59
2019-03-27T14:44:50.165Z,63.88
2019-03-27T14:47:23.751Z,63.68
2019-03-27T14:49:56.322Z,63.80
2019-03-27T14:52:28.893Z,64.12
2019-03-27T14:55:03.123Z,64.12
2019-03-27T14:57:35.286Z,64.27
2019-03-27T15:00:12.061Z,64.77
2019-03-27T15:02:44.629Z,64.87
2019-03-27T15:05:17.223Z,65.19
2019-03-27T15:07:49.787Z,65.48
2019-03-27T15:10:23.394Z,65.87
2019-03-27T15:12:55.969Z,66.04
2019-03-27T15:15:28.546Z,66.67
2019-03-27T15:18:01.123Z,66.68
2019-03-27T15:20:33.695Z,67.14
2019-03-27T15:23:06.994Z,67.74
2019-03-27T15:25:39.558Z,67.48
2019-03-27T15:28:12.033Z,67.02
2019-03-27T15:30:44.614Z,66.94
2019-03-27T15:33:17.195Z,66.58
2019-03-27T15:35:49.774Z,66.92
2019-03-27T15:38:22.355Z,67.05
2019-03-27T15:40:54.933Z,67.17
2019-03-27T15:43:27.068Z,67.12
2019-03-27T15:45:59.674Z,67.05
2019-03-27T15:48:32.017Z,67.62
2019-03-27T15:51:04.620Z,67.48
2019-03-27T15:53:37.191Z,67.51
2019-03-27T15:56:09.772Z,67.47
2019-03-27T15:58:42.357Z,67.56
2019-03-27T16:01:16.566Z,67.84
2019-03-27T16:03:49.130Z,68.34
2019-03-27T16:06:21.710Z,68.60
2019-03-27T16:08:54.290Z,69.13
2019-03-27T16:11:26.925Z,69.18
2019-03-27T16:13:59.441Z,69.57
2019-03-27T16:16:32.235Z,69.85
2019-03-27T16:19:05.937Z,70.20
2019-03-27T16:21:38.502Z,70.27
2019-03-27T16:24:10.977Z,70.51
2019-03-27T16:26:43.514Z,70.59
2019-03-27T16:29:16.023Z,70.52
2019-03-27T16:31:48.616Z,70.33
2019-03-27T16:34:21.189Z,70.35
2019-03-27T16:36:54.274Z,70.41
2019-03-27T16:39:26.958Z,70.51
2019-03-27T16:41:59.537Z,70.64
2019-03-27T16:44:32.102Z,71.39
2019-03-27T16:47:04.693Z,71.70
2019-03-27T16:49:36.920Z,72.11
2019-03-27T16:52:09.538Z,72.33
2019-03-27T16:54:42.413Z,72.46
2019-03-27T16:57:14.991Z,72.51
2019-03-27T16:59:47.573Z,72.61
2019-03-27T17:02:21.061Z,72.71
2019-03-27T17:04:53.642Z,72.70
2019-03-27T17:07:26.223Z,72.78
2019-03-27T17:09:58.892Z,72.88
2019-03-27T17:12:31.683Z,72.90
2019-03-27T17:15:04.982Z,72.80
2019-03-27T17:17:37.552Z,73.05
2019-03-27T17:20:13.909Z,73.15
2019-03-27T17:22:46.495Z,73.24
2019-03-27T17:25:19.046Z,73.38
2019-03-27T17:27:51.621Z,73.52
2019-03-27T17:30:24.199Z,73.60
2019-03-27T17:32:56.876Z,73.92
2019-03-27T17:35:29.352Z,73.77
2019-03-27T17:38:01.929Z,73.90
2019-03-27T17:40:34.411Z,74.10
2019-03-27T17:43:06.979Z,74.15
2019-03-27T17:45:40.686Z,74.27
2019-03-27T17:48:13.260Z,74.45
2019-03-27T17:50:45.839Z,74.51
2019-03-27T17:53:31.051Z,74.80
2019-03-27T17:55:52.527Z,74.90
2019-03-27T17:58:25.101Z,75.25
2019-03-27T18:00:58.600Z,75.59
2019-03-27T18:03:31.387Z,76.17
2019-03-27T18:06:03.972Z,76.87
2019-03-27T18:08:36.536Z,77.18
2019-03-27T18:11:09.111Z,77.17
2019-03-27T18:13:42.202Z,77.58
2019-03-27T18:16:17.161Z,77.78
2019-03-27T18:18:48.987Z,78.07
2019-03-27T18:21:21.414Z,78.17
2019-03-27T18:23:54.202Z,78.21
2019-03-27T18:26:26.723Z,78.34
2019-03-27T18:28:59.298Z,78.57
2019-03-27T18:31:31.878Z,78.55
2019-03-27T18:34:04.453Z,78.47
2019-03-27T18:36:37.030Z,78.55
2019-03-27T18:39:10.629Z,78.46
2019-03-27T18:41:43.221Z,78.55
2019-03-27T18:44:15.784Z,78.56
2019-03-27T18:46:48.258Z,78.56
2019-03-27T18:49:20.834Z,78.45
2019-03-27T18:51:53.411Z,78.50
2019-03-27T18:54:26.090Z,78.40
2019-03-27T18:56:58.670Z,78.31
2019-03-27T18:59:31.516Z,78.36
2019-03-27T19:02:04.235Z,78.43
2019-03-27T19:04:36.808Z,78.51
2019-03-27T19:07:09.281Z,78.54
2019-03-27T19:09:41.863Z,78.45
2019-03-27T19:12:14.433Z,78.61
2019-03-27T19:14:47.011Z,79.37
2019-03-27T19:17:19.136Z,80.13
2019-03-27T19:19:51.651Z,80.42
2019-03-27T19:22:24.228Z,81.12
2019-03-27T19:24:56.806Z,82.01
2019-03-27T19:27:29.438Z,83.38
2019-03-27T19:30:02.066Z,84.16
2019-03-27T19:32:34.739Z,84.57
2019-03-27T19:35:08.035Z,84.77
2019-03-27T19:37:40.168Z,84.65
2019-03-27T19:40:13.698Z,84.81
2019-03-27T19:42:46.577Z,85.29
2019-03-27T19:45:19.167Z,85.50
2019-03-27T19:47:51.291Z,85.49
2019-03-27T19:50:23.906Z,85.78
2019-03-27T19:52:56.582Z,86.20
2019-03-27T19:55:28.884Z,86.16
2019-03-27T19:58:01.530Z,86.21
2019-03-27T20:00:34.217Z,86.52
2019-03-27T20:03:06.741Z,87.04
2019-03-27T20:05:39.427Z,87.95
2019-03-27T20:08:11.939Z,88.78
2019-03-27T20:10:44.515Z,89.35
2019-03-27T20:13:17.088Z,90.02
2019-03-27T20:15:49.669Z,90.67
2019-03-27T20:18:23.781Z,91.06
2019-03-27T20:20:56.197Z,91.41
2019-03-27T20:23:28.733Z,91.80
2019-03-27T20:26:01.507Z,92.12
2019-03-27T20:28:33.981Z,92.31
2019-03-27T20:31:06.565Z,92.45
2019-03-27T20:33:39.196Z,92.50
2019-03-27T20:36:13.105Z,92.68
2019-03-27T20:38:46.137Z,92.85
2019-03-27T20:41:18.308Z,92.93
2019-03-27T20:43:50.886Z,92.98
2019-03-27T20:46:25.528Z,93.11
2019-03-27T20:48:57.571Z,93.09
2019-03-27T20:51:30.290Z,93.17
2019-03-27T20:54:02.829Z,93.16
2019-03-27T20:56:35.400Z,93.10
2019-03-27T20:59:07.881Z,93.07
2019-03-27T21:01:40.456Z,93.05
2019-03-27T21:04:13.067Z,93.13
2019-03-27T21:06:45.608Z,93.18
2019-03-27T21:09:18.329Z,93.16
2019-03-27T21:11:50.964Z,93.23
2019-03-27T21:14:23.100Z,93.31
2019-03-27T21:16:55.965Z,93.41
2019-03-27T21:19:28.387Z,93.40
2019-03-27T21:22:00.966Z,93.43
2019-03-27T21:24:33.535Z,93.41
2019-03-27T21:27:06.126Z,93.34
2019-03-27T21:29:38.591Z,93.22
2019-03-27T21:32:11.162Z,93.19
2019-03-27T21:34:52.737Z,93.20
2019-03-27T21:37:29.326Z,93.14
2019-03-27T21:40:02.281Z,93.12
2019-03-27T21:42:38.896Z,93.18
2019-03-27T21:45:13.876Z,93.15
2019-03-27T21:47:47.959Z,93.18
2019-03-27T21:50:22.629Z,93.32
2019-03-27T21:53:01.145Z,93.44
2019-03-27T21:55:42.594Z,93.56
2019-03-27T21:58:11.634Z,93.77
2019-03-27T22:00:45.951Z,93.85
2019-03-27T22:03:29.916Z,93.95
2019-03-27T22:06:20.422Z,93.98
2019-03-27T22:09:08.962Z,93.96
2019-03-27T22:11:57.640Z,94.02
2019-03-27T22:14:42.448Z,94.07
2019-03-27T22:17:19.790Z,94.03
2019-03-27T22:19:53.516Z,94.09
2019-03-27T22:22:27.943Z,94.15
2019-03-27T22:25:01.085Z,94.14
2019-03-27T22:27:34.426Z,94.13
2019-03-27T22:30:09.496Z,94.12
2019-03-27T22:32:43.532Z,94.02
2019-03-27T22:35:16.392Z,93.98
2019-03-27T22:37:51.092Z,94.05
2019-03-27T22:40:24.682Z,93.98
2019-03-27T22:42:58.084Z,94.09
2019-03-27T22:45:35.264Z,94.02
2019-03-27T22:48:08.135Z,94.01
2019-03-27T22:50:40.661Z,93.97
2019-03-27T22:53:13.234Z,93.92
2019-03-27T22:55:50.142Z,93.95
2019-03-27T22:58:19.926Z,93.86
2019-03-27T23:00:55.063Z,93.81
2019-03-27T23:03:27.646Z,93.69
2019-03-27T23:06:00.213Z,93.69
2019-03-27T23:08:32.790Z,93.71
2019-03-27T23:11:06.391Z,93.70
2019-03-27T23:13:38.965Z,93.72
2019-03-27T23:16:11.541Z,93.71
2019-03-27T23:18:43.668Z,93.65
2019-03-27T23:21:16.190Z,93.61
2019-03-27T23:23:48.765Z,93.75
2019-03-27T23:26:21.343Z,93.82
2019-03-27T23:28:53.818Z,94.00
2019-03-27T23:31:26.434Z,94.22
2019-03-27T23:34:00.474Z,94.34
2019-03-27T23:36:32.670Z,94.48
2019-03-27T23:39:07.807Z,94.55
2019-03-27T23:41:40.381Z,94.69
2019-03-27T23:44:12.502Z,94.71
2019-03-27T23:46:44.789Z,94.74
2019-03-27T23:49:17.295Z,94.74
2019-03-27T23:51:49.871Z,94.66
2019-03-27T23:54:22.550Z,94.66
2019-03-27T23:56:55.126Z,94.65
2019-03-27T23:59:27.703Z,94.67
